sensor_id;sensor_type;location;lat;lon;timestamp;P1;durP1;ratioP1;P2;durP2;ratioP2
78891;SDS011;68368;51.728;5.248;2023-04-01T00:00:02;4.90;;;3.00;;
78891;SDS011;68368;51.728;5.248;2023-04-01T00:02:07;4.60;;;2.80;;
78891;SDS011;68368;51.728;5.248;2023-04-01T00:04:11;6.10;;;3.20;;
78891;SDS011;68368;51.728;5.248;2023-04-01T00:06:14;5.10;;;3.30;;
78891;SDS011;68368;51.728;5.248;2023-04-01T00:08:20;5.40;;;2.80;;
78891;SDS011;68368;51.728;5.248;2023-04-01T00:10:25;5.40;;;3.00;;
78891;SDS011;68368;51.728;5.248;2023-04-01T00:12:30;4.80;;;2.70;;
78891;SDS011;68368;51.728;5.248;2023-04-01T00:14:33;4.00;;;2.30;;
78891;SDS011;68368;51.728;5.248;2023-04-01T00:16:36;3.10;;;2.10;;
78891;SDS011;68368;51.728;5.248;2023-04-01T00:18:40;3.80;;;2.90;;
78891;SDS011;68368;51.728;5.248;2023-04-01T00:20:44;4.70;;;2.90;;
78891;SDS011;68368;51.728;5.248;2023-04-01T00:22:49;3.80;;;3.20;;
78891;SDS011;68368;51.728;5.248;2023-04-01T00:24:53;5.00;;;3.20;;
78891;SDS011;68368;51.728;5.248;2023-04-01T00:26:56;5.10;;;3.30;;
78891;SDS011;68368;51.728;5.248;2023-04-01T00:28:59;4.30;;;3.30;;
78891;SDS011;68368;51.728;5.248;2023-04-01T00:31:05;4.00;;;2.90;;
78891;SDS011;68368;51.728;5.248;2023-04-01T00:33:09;4.20;;;3.10;;
78891;SDS011;68368;51.728;5.248;2023-04-01T00:35:13;4.00;;;3.40;;
78891;SDS011;68368;51.728;5.248;2023-04-01T00:37:16;6.40;;;3.60;;
78891;SDS011;68368;51.728;5.248;2023-04-01T00:39:19;4.20;;;2.70;;
78891;SDS011;68368;51.728;5.248;2023-04-01T00:41:23;3.90;;;2.70;;
78891;SDS011;68368;51.728;5.248;2023-04-01T00:43:26;5.50;;;3.00;;
78891;SDS011;68368;51.728;5.248;2023-04-01T00:45:34;3.70;;;1.70;;
78891;SDS011;68368;51.728;5.248;2023-04-01T00:47:40;4.90;;;3.00;;
78891;SDS011;68368;51.728;5.248;2023-04-01T00:49:43;4.90;;;3.10;;
78891;SDS011;68368;51.728;5.248;2023-04-01T00:51:52;4.90;;;2.70;;
78891;SDS011;68368;51.728;5.248;2023-04-01T00:53:58;3.10;;;2.50;;
78891;SDS011;68368;51.728;5.248;2023-04-01T00:56:04;5.90;;;2.80;;
78891;SDS011;68368;51.728;5.248;2023-04-01T00:58:14;6.40;;;3.00;;
78891;SDS011;68368;51.728;5.248;2023-04-01T01:00:20;3.50;;;2.30;;
78891;SDS011;68368;51.728;5.248;2023-04-01T01:02:23;5.90;;;2.90;;
78891;SDS011;68368;51.728;5.248;2023-04-01T01:04:27;4.70;;;2.40;;
78891;SDS011;68368;51.728;5.248;2023-04-01T01:06:35;4.00;;;2.10;;
78891;SDS011;68368;51.728;5.248;2023-04-01T01:09:01;4.20;;;1.60;;
78891;SDS011;68368;51.728;5.248;2023-04-01T01:11:12;4.40;;;2.00;;
78891;SDS011;68368;51.728;5.248;2023-04-01T01:13:24;4.10;;;2.20;;
78891;SDS011;68368;51.728;5.248;2023-04-01T01:15:44;4.70;;;2.00;;
78891;SDS011;68368;51.728;5.248;2023-04-01T01:18:00;3.70;;;1.80;;
78891;SDS011;68368;51.728;5.248;2023-04-01T01:20:32;4.20;;;1.80;;
78891;SDS011;68368;51.728;5.248;2023-04-01T01:23:12;2.50;;;1.50;;
78891;SDS011;68368;51.728;5.248;2023-04-01T01:25:54;4.00;;;1.70;;
78891;SDS011;68368;51.728;5.248;2023-04-01T01:28:18;6.80;;;2.00;;
78891;SDS011;68368;51.728;5.248;2023-04-01T01:30:37;3.10;;;1.40;;
78891;SDS011;68368;51.728;5.248;2023-04-01T01:32:49;3.60;;;1.40;;
78891;SDS011;68368;51.728;5.248;2023-04-01T01:35:25;3.20;;;1.70;;
78891;SDS011;68368;51.728;5.248;2023-04-01T01:37:31;2.90;;;1.40;;
78891;SDS011;68368;51.728;5.248;2023-04-01T01:39:35;2.60;;;1.50;;
78891;SDS011;68368;51.728;5.248;2023-04-01T01:41:41;4.70;;;1.30;;
78891;SDS011;68368;51.728;5.248;2023-04-01T01:43:46;3.60;;;1.30;;
78891;SDS011;68368;51.728;5.248;2023-04-01T01:45:52;2.50;;;1.20;;
78891;SDS011;68368;51.728;5.248;2023-04-01T01:47:59;3.70;;;1.50;;
78891;SDS011;68368;51.728;5.248;2023-04-01T01:50:06;2.50;;;1.30;;
78891;SDS011;68368;51.728;5.248;2023-04-01T01:52:13;2.40;;;1.10;;
78891;SDS011;68368;51.728;5.248;2023-04-01T01:54:18;4.00;;;1.60;;
78891;SDS011;68368;51.728;5.248;2023-04-01T01:56:23;2.90;;;1.40;;
78891;SDS011;68368;51.728;5.248;2023-04-01T01:58:32;3.30;;;1.40;;
78891;SDS011;68368;51.728;5.248;2023-04-01T02:00:37;3.60;;;1.50;;
78891;SDS011;68368;51.728;5.248;2023-04-01T02:02:45;3.00;;;1.40;;
78891;SDS011;68368;51.728;5.248;2023-04-01T02:04:49;2.10;;;1.20;;
78891;SDS011;68368;51.728;5.248;2023-04-01T02:06:55;4.00;;;1.20;;
78891;SDS011;68368;51.728;5.248;2023-04-01T02:09:01;2.60;;;1.30;;
78891;SDS011;68368;51.728;5.248;2023-04-01T02:11:07;2.50;;;1.10;;
78891;SDS011;68368;51.728;5.248;2023-04-01T02:13:13;3.80;;;1.50;;
78891;SDS011;68368;51.728;5.248;2023-04-01T02:15:23;3.50;;;1.50;;
78891;SDS011;68368;51.728;5.248;2023-04-01T02:17:29;2.30;;;1.50;;
78891;SDS011;68368;51.728;5.248;2023-04-01T02:19:36;4.50;;;2.00;;
78891;SDS011;68368;51.728;5.248;2023-04-01T02:21:44;3.30;;;1.50;;
78891;SDS011;68368;51.728;5.248;2023-04-01T02:23:47;5.70;;;1.70;;
78891;SDS011;68368;51.728;5.248;2023-04-01T02:25:54;4.40;;;1.70;;
78891;SDS011;68368;51.728;5.248;2023-04-01T02:27:58;5.10;;;2.00;;
78891;SDS011;68368;51.728;5.248;2023-04-01T02:30:05;4.10;;;1.80;;
78891;SDS011;68368;51.728;5.248;2023-04-01T02:32:09;4.50;;;2.00;;
78891;SDS011;68368;51.728;5.248;2023-04-01T02:34:14;4.90;;;1.90;;
78891;SDS011;68368;51.728;5.248;2023-04-01T02:36:17;3.30;;;1.50;;
78891;SDS011;68368;51.728;5.248;2023-04-01T02:38:21;3.20;;;1.70;;
78891;SDS011;68368;51.728;5.248;2023-04-01T02:40:26;5.90;;;2.20;;
78891;SDS011;68368;51.728;5.248;2023-04-01T02:42:29;5.30;;;2.50;;
78891;SDS011;68368;51.728;5.248;2023-04-01T02:44:32;5.70;;;2.10;;
78891;SDS011;68368;51.728;5.248;2023-04-01T02:46:36;3.80;;;1.70;;
78891;SDS011;68368;51.728;5.248;2023-04-01T02:48:39;5.20;;;2.00;;
78891;SDS011;68368;51.728;5.248;2023-04-01T02:50:47;3.60;;;1.80;;
78891;SDS011;68368;51.728;5.248;2023-04-01T02:52:52;3.10;;;2.20;;
78891;SDS011;68368;51.728;5.248;2023-04-01T02:54:55;5.20;;;1.90;;
78891;SDS011;68368;51.728;5.248;2023-04-01T02:56:59;3.30;;;1.80;;
78891;SDS011;68368;51.728;5.248;2023-04-01T02:59:02;3.00;;;1.70;;
78891;SDS011;68368;51.728;5.248;2023-04-01T03:01:06;2.90;;;1.80;;
78891;SDS011;68368;51.728;5.248;2023-04-01T03:03:09;3.30;;;1.80;;
78891;SDS011;68368;51.728;5.248;2023-04-01T03:05:20;3.30;;;2.00;;
78891;SDS011;68368;51.728;5.248;2023-04-01T03:07:24;4.30;;;1.90;;
78891;SDS011;68368;51.728;5.248;2023-04-01T03:09:27;3.30;;;2.10;;
78891;SDS011;68368;51.728;5.248;2023-04-01T03:11:30;3.20;;;2.00;;
78891;SDS011;68368;51.728;5.248;2023-04-01T03:13:33;3.30;;;1.80;;
78891;SDS011;68368;51.728;5.248;2023-04-01T03:15:40;4.60;;;2.60;;
78891;SDS011;68368;51.728;5.248;2023-04-01T03:17:43;5.40;;;2.60;;
78891;SDS011;68368;51.728;5.248;2023-04-01T03:19:47;3.90;;;2.60;;
78891;SDS011;68368;51.728;5.248;2023-04-01T03:21:50;4.20;;;2.80;;
78891;SDS011;68368;51.728;5.248;2023-04-01T03:23:55;5.70;;;2.70;;
78891;SDS011;68368;51.728;5.248;2023-04-01T03:25:58;4.60;;;3.10;;
78891;SDS011;68368;51.728;5.248;2023-04-01T03:28:01;5.40;;;3.30;;
78891;SDS011;68368;51.728;5.248;2023-04-01T03:30:06;5.10;;;2.80;;
78891;SDS011;68368;51.728;5.248;2023-04-01T03:32:11;8.10;;;4.50;;
78891;SDS011;68368;51.728;5.248;2023-04-01T03:34:14;5.90;;;3.80;;
78891;SDS011;68368;51.728;5.248;2023-04-01T03:36:17;6.30;;;3.70;;
78891;SDS011;68368;51.728;5.248;2023-04-01T03:38:23;7.60;;;4.10;;
78891;SDS011;68368;51.728;5.248;2023-04-01T03:40:27;6.50;;;3.70;;
78891;SDS011;68368;51.728;5.248;2023-04-01T03:42:31;8.90;;;4.60;;
78891;SDS011;68368;51.728;5.248;2023-04-01T03:44:34;6.40;;;3.50;;
78891;SDS011;68368;51.728;5.248;2023-04-01T03:46:37;6.90;;;3.80;;
78891;SDS011;68368;51.728;5.248;2023-04-01T03:48:43;5.20;;;3.70;;
78891;SDS011;68368;51.728;5.248;2023-04-01T03:50:46;7.00;;;3.70;;
78891;SDS011;68368;51.728;5.248;2023-04-01T03:52:49;5.50;;;3.40;;
78891;SDS011;68368;51.728;5.248;2023-04-01T03:54:56;6.10;;;3.60;;
78891;SDS011;68368;51.728;5.248;2023-04-01T03:56:59;5.60;;;3.20;;
78891;SDS011;68368;51.728;5.248;2023-04-01T03:59:02;6.50;;;3.40;;
78891;SDS011;68368;51.728;5.248;2023-04-01T04:01:14;5.90;;;3.40;;
78891;SDS011;68368;51.728;5.248;2023-04-01T04:03:25;5.00;;;2.70;;
78891;SDS011;68368;51.728;5.248;2023-04-01T04:05:28;5.20;;;2.60;;
78891;SDS011;68368;51.728;5.248;2023-04-01T04:07:33;4.30;;;2.70;;
78891;SDS011;68368;51.728;5.248;2023-04-01T04:09:37;3.90;;;2.30;;
78891;SDS011;68368;51.728;5.248;2023-04-01T04:11:43;6.90;;;2.70;;
78891;SDS011;68368;51.728;5.248;2023-04-01T04:13:46;4.40;;;2.40;;
78891;SDS011;68368;51.728;5.248;2023-04-01T04:15:49;5.60;;;2.40;;
78891;SDS011;68368;51.728;5.248;2023-04-01T04:17:52;6.50;;;2.40;;
78891;SDS011;68368;51.728;5.248;2023-04-01T04:19:56;4.60;;;2.40;;
78891;SDS011;68368;51.728;5.248;2023-04-01T04:22:01;6.40;;;3.30;;
78891;SDS011;68368;51.728;5.248;2023-04-01T04:24:05;4.80;;;2.50;;
78891;SDS011;68368;51.728;5.248;2023-04-01T04:26:10;5.50;;;2.60;;
78891;SDS011;68368;51.728;5.248;2023-04-01T04:28:17;4.70;;;2.60;;
78891;SDS011;68368;51.728;5.248;2023-04-01T04:30:20;5.00;;;3.10;;
78891;SDS011;68368;51.728;5.248;2023-04-01T04:32:23;4.30;;;2.60;;
78891;SDS011;68368;51.728;5.248;2023-04-01T04:34:27;3.90;;;2.90;;
78891;SDS011;68368;51.728;5.248;2023-04-01T04:36:33;4.90;;;3.30;;
78891;SDS011;68368;51.728;5.248;2023-04-01T04:38:36;4.60;;;3.10;;
78891;SDS011;68368;51.728;5.248;2023-04-01T04:40:40;4.90;;;3.30;;
78891;SDS011;68368;51.728;5.248;2023-04-01T04:42:44;4.80;;;3.60;;
78891;SDS011;68368;51.728;5.248;2023-04-01T04:44:48;6.90;;;3.60;;
78891;SDS011;68368;51.728;5.248;2023-04-01T04:46:52;6.00;;;3.70;;
78891;SDS011;68368;51.728;5.248;2023-04-01T04:48:55;6.50;;;3.90;;
78891;SDS011;68368;51.728;5.248;2023-04-01T04:50:59;6.60;;;4.10;;
78891;SDS011;68368;51.728;5.248;2023-04-01T04:53:03;8.30;;;4.60;;
78891;SDS011;68368;51.728;5.248;2023-04-01T04:55:07;7.70;;;3.60;;
78891;SDS011;68368;51.728;5.248;2023-04-01T04:57:10;6.20;;;4.70;;
78891;SDS011;68368;51.728;5.248;2023-04-01T04:59:13;6.70;;;4.00;;
78891;SDS011;68368;51.728;5.248;2023-04-01T05:01:17;7.20;;;4.10;;
78891;SDS011;68368;51.728;5.248;2023-04-01T05:03:21;6.40;;;4.10;;
78891;SDS011;68368;51.728;5.248;2023-04-01T05:05:25;5.80;;;4.10;;
78891;SDS011;68368;51.728;5.248;2023-04-01T05:07:28;9.30;;;4.70;;
78891;SDS011;68368;51.728;5.248;2023-04-01T05:09:31;7.10;;;5.00;;
78891;SDS011;68368;51.728;5.248;2023-04-01T05:11:35;5.40;;;3.70;;
78891;SDS011;68368;51.728;5.248;2023-04-01T05:13:39;7.60;;;4.70;;
78891;SDS011;68368;51.728;5.248;2023-04-01T05:15:44;6.70;;;4.70;;
78891;SDS011;68368;51.728;5.248;2023-04-01T05:17:47;6.10;;;4.00;;
78891;SDS011;68368;51.728;5.248;2023-04-01T05:19:51;5.90;;;3.90;;
78891;SDS011;68368;51.728;5.248;2023-04-01T05:21:54;7.90;;;4.80;;
78891;SDS011;68368;51.728;5.248;2023-04-01T05:23:57;7.60;;;4.30;;
78891;SDS011;68368;51.728;5.248;2023-04-01T05:26:03;7.40;;;4.90;;
78891;SDS011;68368;51.728;5.248;2023-04-01T05:28:07;9.10;;;5.60;;
78891;SDS011;68368;51.728;5.248;2023-04-01T05:30:11;9.80;;;5.90;;
78891;SDS011;68368;51.728;5.248;2023-04-01T05:32:14;11.10;;;6.30;;
78891;SDS011;68368;51.728;5.248;2023-04-01T05:34:18;9.60;;;6.00;;
78891;SDS011;68368;51.728;5.248;2023-04-01T05:36:21;10.40;;;6.40;;
78891;SDS011;68368;51.728;5.248;2023-04-01T05:38:24;10.50;;;6.30;;
78891;SDS011;68368;51.728;5.248;2023-04-01T05:40:29;13.60;;;7.10;;
78891;SDS011;68368;51.728;5.248;2023-04-01T05:42:33;14.00;;;6.10;;
78891;SDS011;68368;51.728;5.248;2023-04-01T05:44:36;12.00;;;7.30;;
78891;SDS011;68368;51.728;5.248;2023-04-01T05:46:40;10.80;;;5.90;;
78891;SDS011;68368;51.728;5.248;2023-04-01T05:48:43;12.40;;;7.10;;
78891;SDS011;68368;51.728;5.248;2023-04-01T05:50:46;14.10;;;7.20;;
78891;SDS011;68368;51.728;5.248;2023-04-01T05:52:50;14.40;;;7.60;;
78891;SDS011;68368;51.728;5.248;2023-04-01T05:54:56;14.00;;;7.00;;
78891;SDS011;68368;51.728;5.248;2023-04-01T05:56:59;14.20;;;7.60;;
78891;SDS011;68368;51.728;5.248;2023-04-01T05:59:03;13.60;;;7.40;;
78891;SDS011;68368;51.728;5.248;2023-04-01T06:01:07;11.90;;;6.20;;
78891;SDS011;68368;51.728;5.248;2023-04-01T06:03:12;12.30;;;7.00;;
78891;SDS011;68368;51.728;5.248;2023-04-01T06:05:17;13.80;;;8.00;;
78891;SDS011;68368;51.728;5.248;2023-04-01T06:07:22;13.50;;;6.20;;
78891;SDS011;68368;51.728;5.248;2023-04-01T06:09:27;13.40;;;7.20;;
78891;SDS011;68368;51.728;5.248;2023-04-01T06:11:34;16.10;;;7.60;;
78891;SDS011;68368;51.728;5.248;2023-04-01T06:13:50;14.50;;;6.40;;
78891;SDS011;68368;51.728;5.248;2023-04-01T06:16:12;12.20;;;6.60;;
78891;SDS011;68368;51.728;5.248;2023-04-01T06:18:29;17.80;;;7.30;;
78891;SDS011;68368;51.728;5.248;2023-04-01T06:20:44;15.90;;;8.30;;
78891;SDS011;68368;51.728;5.248;2023-04-01T06:23:00;15.20;;;7.60;;
78891;SDS011;68368;51.728;5.248;2023-04-01T06:25:28;13.50;;;6.40;;
78891;SDS011;68368;51.728;5.248;2023-04-01T06:27:43;14.40;;;7.60;;
78891;SDS011;68368;51.728;5.248;2023-04-01T06:30:00;15.40;;;7.50;;
78891;SDS011;68368;51.728;5.248;2023-04-01T06:32:25;14.10;;;7.70;;
78891;SDS011;68368;51.728;5.248;2023-04-01T06:34:48;13.30;;;6.70;;
78891;SDS011;68368;51.728;5.248;2023-04-01T06:39:52;13.90;;;8.50;;
78891;SDS011;68368;51.728;5.248;2023-04-01T06:42:19;16.10;;;8.30;;
78891;SDS011;68368;51.728;5.248;2023-04-01T06:44:34;16.40;;;8.00;;
78891;SDS011;68368;51.728;5.248;2023-04-01T06:46:47;14.10;;;8.10;;
78891;SDS011;68368;51.728;5.248;2023-04-01T06:51:26;12.80;;;7.20;;
78891;SDS011;68368;51.728;5.248;2023-04-01T06:53:41;15.90;;;8.20;;
78891;SDS011;68368;51.728;5.248;2023-04-01T06:55:51;15.10;;;7.50;;
78891;SDS011;68368;51.728;5.248;2023-04-01T06:57:58;12.10;;;6.30;;
78891;SDS011;68368;51.728;5.248;2023-04-01T07:00:11;13.40;;;7.80;;
78891;SDS011;68368;51.728;5.248;2023-04-01T07:02:24;14.70;;;7.70;;
78891;SDS011;68368;51.728;5.248;2023-04-01T07:04:34;15.00;;;7.80;;
78891;SDS011;68368;51.728;5.248;2023-04-01T07:06:42;15.60;;;8.60;;
78891;SDS011;68368;51.728;5.248;2023-04-01T07:08:52;16.40;;;8.20;;
78891;SDS011;68368;51.728;5.248;2023-04-01T07:11:02;15.40;;;8.00;;
78891;SDS011;68368;51.728;5.248;2023-04-01T07:13:06;15.20;;;8.70;;
78891;SDS011;68368;51.728;5.248;2023-04-01T07:15:19;12.70;;;7.80;;
78891;SDS011;68368;51.728;5.248;2023-04-01T07:17:27;13.00;;;7.70;;
78891;SDS011;68368;51.728;5.248;2023-04-01T07:19:34;12.40;;;6.90;;
78891;SDS011;68368;51.728;5.248;2023-04-01T07:21:44;14.70;;;7.10;;
78891;SDS011;68368;51.728;5.248;2023-04-01T07:23:51;12.10;;;6.00;;
78891;SDS011;68368;51.728;5.248;2023-04-01T07:26:00;14.30;;;6.90;;
78891;SDS011;68368;51.728;5.248;2023-04-01T07:28:12;11.70;;;6.00;;
78891;SDS011;68368;51.728;5.248;2023-04-01T07:30:19;12.70;;;6.10;;
78891;SDS011;68368;51.728;5.248;2023-04-01T07:32:27;11.30;;;5.90;;
78891;SDS011;68368;51.728;5.248;2023-04-01T07:34:42;11.10;;;5.20;;
78891;SDS011;68368;51.728;5.248;2023-04-01T07:37:12;12.00;;;5.10;;
78891;SDS011;68368;51.728;5.248;2023-04-01T07:39:26;11.60;;;5.50;;
78891;SDS011;68368;51.728;5.248;2023-04-01T07:41:40;12.40;;;5.90;;
78891;SDS011;68368;51.728;5.248;2023-04-01T07:43:57;12.30;;;5.40;;
78891;SDS011;68368;51.728;5.248;2023-04-01T07:46:10;10.50;;;5.90;;
78891;SDS011;68368;51.728;5.248;2023-04-01T07:48:24;11.70;;;7.00;;
78891;SDS011;68368;51.728;5.248;2023-04-01T07:50:32;11.90;;;6.80;;
78891;SDS011;68368;51.728;5.248;2023-04-01T07:52:43;13.10;;;6.60;;
78891;SDS011;68368;51.728;5.248;2023-04-01T07:54:53;15.30;;;8.20;;
78891;SDS011;68368;51.728;5.248;2023-04-01T07:57:05;13.30;;;7.30;;
78891;SDS011;68368;51.728;5.248;2023-04-01T07:59:15;12.00;;;6.80;;
78891;SDS011;68368;51.728;5.248;2023-04-01T08:01:27;14.80;;;7.20;;
78891;SDS011;68368;51.728;5.248;2023-04-01T08:03:38;13.30;;;6.80;;
78891;SDS011;68368;51.728;5.248;2023-04-01T08:05:55;11.30;;;5.50;;
78891;SDS011;68368;51.728;5.248;2023-04-01T08:08:04;13.50;;;7.60;;
78891;SDS011;68368;51.728;5.248;2023-04-01T08:10:17;13.10;;;8.30;;
78891;SDS011;68368;51.728;5.248;2023-04-01T08:12:31;14.70;;;7.70;;
78891;SDS011;68368;51.728;5.248;2023-04-01T08:14:51;11.40;;;5.80;;
78891;SDS011;68368;51.728;5.248;2023-04-01T08:17:03;15.20;;;8.10;;
78891;SDS011;68368;51.728;5.248;2023-04-01T08:19:18;12.90;;;7.50;;
78891;SDS011;68368;51.728;5.248;2023-04-01T08:21:32;18.60;;;9.00;;
78891;SDS011;68368;51.728;5.248;2023-04-01T08:23:44;14.10;;;6.70;;
78891;SDS011;68368;51.728;5.248;2023-04-01T08:25:52;16.10;;;9.00;;
78891;SDS011;68368;51.728;5.248;2023-04-01T08:28:00;15.30;;;8.20;;
78891;SDS011;68368;51.728;5.248;2023-04-01T08:30:16;14.10;;;7.70;;
78891;SDS011;68368;51.728;5.248;2023-04-01T08:32:23;16.10;;;7.30;;
78891;SDS011;68368;51.728;5.248;2023-04-01T08:34:32;13.70;;;7.40;;
78891;SDS011;68368;51.728;5.248;2023-04-01T08:36:38;13.90;;;7.90;;
78891;SDS011;68368;51.728;5.248;2023-04-01T08:38:46;16.50;;;8.40;;
78891;SDS011;68368;51.728;5.248;2023-04-01T08:43:34;10.30;;;5.80;;
78891;SDS011;68368;51.728;5.248;2023-04-01T08:45:56;11.00;;;6.00;;
78891;SDS011;68368;51.728;5.248;2023-04-01T08:48:25;13.40;;;7.00;;
78891;SDS011;68368;51.728;5.248;2023-04-01T08:50:42;13.80;;;6.40;;
78891;SDS011;68368;51.728;5.248;2023-04-01T08:53:14;12.40;;;6.50;;
78891;SDS011;68368;51.728;5.248;2023-04-01T09:00:03;11.20;;;6.70;;
78891;SDS011;68368;51.728;5.248;2023-04-01T09:05:17;12.10;;;6.50;;
78891;SDS011;68368;51.728;5.248;2023-04-01T09:07:32;13.10;;;7.30;;
78891;SDS011;68368;51.728;5.248;2023-04-01T09:12:29;11.30;;;7.20;;
78891;SDS011;68368;51.728;5.248;2023-04-01T09:14:45;8.60;;;5.20;;
78891;SDS011;68368;51.728;5.248;2023-04-01T09:24:17;9.50;;;4.80;;
78891;SDS011;68368;51.728;5.248;2023-04-01T09:26:37;12.00;;;5.60;;
78891;SDS011;68368;51.728;5.248;2023-04-01T09:28:57;9.20;;;6.30;;
78891;SDS011;68368;51.728;5.248;2023-04-01T09:31:16;9.30;;;5.70;;
78891;SDS011;68368;51.728;5.248;2023-04-01T09:33:38;8.70;;;5.50;;
78891;SDS011;68368;51.728;5.248;2023-04-01T09:36:00;9.30;;;6.00;;
78891;SDS011;68368;51.728;5.248;2023-04-01T09:38:16;9.60;;;6.00;;
78891;SDS011;68368;51.728;5.248;2023-04-01T09:40:25;10.20;;;6.10;;
78891;SDS011;68368;51.728;5.248;2023-04-01T09:42:43;8.70;;;5.90;;
78891;SDS011;68368;51.728;5.248;2023-04-01T09:44:56;8.30;;;5.50;;
78891;SDS011;68368;51.728;5.248;2023-04-01T09:47:09;6.60;;;4.90;;
78891;SDS011;68368;51.728;5.248;2023-04-01T09:49:45;8.20;;;4.80;;
78891;SDS011;68368;51.728;5.248;2023-04-01T09:52:11;6.90;;;4.00;;
78891;SDS011;68368;51.728;5.248;2023-04-01T09:54:29;7.30;;;4.40;;
78891;SDS011;68368;51.728;5.248;2023-04-01T09:56:49;9.20;;;4.60;;
78891;SDS011;68368;51.728;5.248;2023-04-01T10:07:12;6.70;;;3.30;;
78891;SDS011;68368;51.728;5.248;2023-04-01T10:12:28;6.60;;;3.80;;
78891;SDS011;68368;51.728;5.248;2023-04-01T10:17:38;5.90;;;3.50;;
78891;SDS011;68368;51.728;5.248;2023-04-01T10:20:01;6.30;;;4.40;;
78891;SDS011;68368;51.728;5.248;2023-04-01T10:22:27;7.10;;;4.00;;
78891;SDS011;68368;51.728;5.248;2023-04-01T10:24:50;7.60;;;3.90;;
78891;SDS011;68368;51.728;5.248;2023-04-01T10:27:26;7.50;;;4.40;;
78891;SDS011;68368;51.728;5.248;2023-04-01T10:30:01;8.70;;;4.80;;
78891;SDS011;68368;51.728;5.248;2023-04-01T10:32:23;7.80;;;4.10;;
78891;SDS011;68368;51.728;5.248;2023-04-01T10:42:55;9.00;;;4.80;;
78891;SDS011;68368;51.728;5.248;2023-04-01T10:55:55;7.70;;;4.50;;
78891;SDS011;68368;51.728;5.248;2023-04-01T10:58:28;7.80;;;4.20;;
78891;SDS011;68368;51.728;5.248;2023-04-01T11:01:13;8.30;;;4.70;;
78891;SDS011;68368;51.728;5.248;2023-04-01T11:04:03;8.60;;;4.70;;
78891;SDS011;68368;51.728;5.248;2023-04-01T11:09:31;7.80;;;4.90;;
78891;SDS011;68368;51.728;5.248;2023-04-01T11:12:07;8.90;;;4.30;;
78891;SDS011;68368;51.728;5.248;2023-04-01T11:20:08;7.70;;;4.10;;
78891;SDS011;68368;51.728;5.248;2023-04-01T11:22:45;8.10;;;4.50;;
78891;SDS011;68368;51.728;5.248;2023-04-01T11:25:04;8.50;;;4.50;;
78891;SDS011;68368;51.728;5.248;2023-04-01T11:27:24;6.10;;;2.70;;
78891;SDS011;68368;51.728;5.248;2023-04-01T11:29:43;6.60;;;3.50;;
78891;SDS011;68368;51.728;5.248;2023-04-01T11:32:11;4.70;;;2.70;;
78891;SDS011;68368;51.728;5.248;2023-04-01T11:34:40;5.30;;;2.90;;
78891;SDS011;68368;51.728;5.248;2023-04-01T11:36:54;4.90;;;2.70;;
78891;SDS011;68368;51.728;5.248;2023-04-01T11:39:10;4.90;;;3.00;;
78891;SDS011;68368;51.728;5.248;2023-04-01T11:41:25;3.70;;;2.40;;
78891;SDS011;68368;51.728;5.248;2023-04-01T11:43:42;5.90;;;3.20;;
78891;SDS011;68368;51.728;5.248;2023-04-01T11:45:56;6.70;;;3.10;;
78891;SDS011;68368;51.728;5.248;2023-04-01T11:48:14;4.30;;;2.20;;
78891;SDS011;68368;51.728;5.248;2023-04-01T11:50:29;2.90;;;2.10;;
78891;SDS011;68368;51.728;5.248;2023-04-01T11:53:00;3.40;;;1.70;;
78891;SDS011;68368;51.728;5.248;2023-04-01T11:55:22;4.30;;;2.00;;
78891;SDS011;68368;51.728;5.248;2023-04-01T12:02:37;5.70;;;2.50;;
78891;SDS011;68368;51.728;5.248;2023-04-01T12:04:58;5.90;;;2.90;;
78891;SDS011;68368;51.728;5.248;2023-04-01T12:07:41;3.70;;;2.00;;
78891;SDS011;68368;51.728;5.248;2023-04-01T12:10:12;4.40;;;2.50;;
78891;SDS011;68368;51.728;5.248;2023-04-01T12:12:22;6.40;;;3.50;;
78891;SDS011;68368;51.728;5.248;2023-04-01T12:14:35;6.60;;;3.90;;
78891;SDS011;68368;51.728;5.248;2023-04-01T12:16:51;4.10;;;2.20;;
78891;SDS011;68368;51.728;5.248;2023-04-01T12:19:04;6.30;;;3.20;;
78891;SDS011;68368;51.728;5.248;2023-04-01T12:21:21;4.70;;;2.80;;
78891;SDS011;68368;51.728;5.248;2023-04-01T12:28:18;6.50;;;3.20;;
78891;SDS011;68368;51.728;5.248;2023-04-01T12:33:14;3.60;;;2.50;;
78891;SDS011;68368;51.728;5.248;2023-04-01T12:35:32;6.10;;;3.00;;
78891;SDS011;68368;51.728;5.248;2023-04-01T12:37:45;4.10;;;2.80;;
78891;SDS011;68368;51.728;5.248;2023-04-01T12:40:06;5.30;;;3.00;;
78891;SDS011;68368;51.728;5.248;2023-04-01T12:42:46;5.60;;;2.40;;
78891;SDS011;68368;51.728;5.248;2023-04-01T12:45:03;5.00;;;2.70;;
78891;SDS011;68368;51.728;5.248;2023-04-01T12:49:56;4.80;;;3.10;;
78891;SDS011;68368;51.728;5.248;2023-04-01T12:52:17;4.80;;;2.80;;
78891;SDS011;68368;51.728;5.248;2023-04-01T12:57:17;5.50;;;2.70;;
78891;SDS011;68368;51.728;5.248;2023-04-01T13:02:01;4.40;;;2.70;;
78891;SDS011;68368;51.728;5.248;2023-04-01T13:04:38;4.10;;;2.60;;
78891;SDS011;68368;51.728;5.248;2023-04-01T13:07:05;5.90;;;2.80;;
78891;SDS011;68368;51.728;5.248;2023-04-01T13:09:29;5.60;;;3.10;;
78891;SDS011;68368;51.728;5.248;2023-04-01T13:11:43;6.60;;;3.70;;
78891;SDS011;68368;51.728;5.248;2023-04-01T13:16:42;9.20;;;5.50;;
78891;SDS011;68368;51.728;5.248;2023-04-01T13:18:56;9.20;;;5.00;;
78891;SDS011;68368;51.728;5.248;2023-04-01T13:21:05;8.50;;;4.40;;
78891;SDS011;68368;51.728;5.248;2023-04-01T13:23:27;7.10;;;3.50;;
78891;SDS011;68368;51.728;5.248;2023-04-01T13:25:44;8.50;;;4.00;;
78891;SDS011;68368;51.728;5.248;2023-04-01T13:27:55;7.50;;;4.00;;
78891;SDS011;68368;51.728;5.248;2023-04-01T13:30:20;8.70;;;4.20;;
78891;SDS011;68368;51.728;5.248;2023-04-01T13:32:32;5.70;;;3.50;;
78891;SDS011;68368;51.728;5.248;2023-04-01T13:34:46;6.50;;;3.60;;
78891;SDS011;68368;51.728;5.248;2023-04-01T13:37:02;7.80;;;3.80;;
78891;SDS011;68368;51.728;5.248;2023-04-01T13:39:22;5.70;;;3.40;;
78891;SDS011;68368;51.728;5.248;2023-04-01T13:41:41;6.20;;;3.80;;
78891;SDS011;68368;51.728;5.248;2023-04-01T13:44:02;7.50;;;3.80;;
78891;SDS011;68368;51.728;5.248;2023-04-01T13:46:22;7.10;;;4.00;;
78891;SDS011;68368;51.728;5.248;2023-04-01T13:48:47;5.90;;;3.50;;
78891;SDS011;68368;51.728;5.248;2023-04-01T13:56:42;8.50;;;4.40;;
78891;SDS011;68368;51.728;5.248;2023-04-01T13:58:56;6.90;;;3.90;;
78891;SDS011;68368;51.728;5.248;2023-04-01T14:01:10;6.80;;;4.20;;
78891;SDS011;68368;51.728;5.248;2023-04-01T14:03:24;7.60;;;4.10;;
78891;SDS011;68368;51.728;5.248;2023-04-01T14:05:52;6.80;;;4.20;;
78891;SDS011;68368;51.728;5.248;2023-04-01T14:08:06;10.10;;;4.90;;
78891;SDS011;68368;51.728;5.248;2023-04-01T14:10:24;7.80;;;5.00;;
78891;SDS011;68368;51.728;5.248;2023-04-01T14:12:35;7.60;;;4.40;;
78891;SDS011;68368;51.728;5.248;2023-04-01T14:14:50;8.00;;;5.00;;
78891;SDS011;68368;51.728;5.248;2023-04-01T14:17:12;10.20;;;5.70;;
78891;SDS011;68368;51.728;5.248;2023-04-01T14:19:46;7.20;;;4.00;;
78891;SDS011;68368;51.728;5.248;2023-04-01T14:22:00;8.90;;;5.10;;
78891;SDS011;68368;51.728;5.248;2023-04-01T14:24:27;8.10;;;5.00;;
78891;SDS011;68368;51.728;5.248;2023-04-01T14:26:57;6.80;;;3.80;;
78891;SDS011;68368;51.728;5.248;2023-04-01T14:29:27;8.20;;;4.50;;
78891;SDS011;68368;51.728;5.248;2023-04-01T14:31:41;7.50;;;4.30;;
78891;SDS011;68368;51.728;5.248;2023-04-01T14:33:52;8.20;;;5.10;;
78891;SDS011;68368;51.728;5.248;2023-04-01T14:36:23;8.90;;;5.00;;
78891;SDS011;68368;51.728;5.248;2023-04-01T14:38:45;7.00;;;4.10;;
78891;SDS011;68368;51.728;5.248;2023-04-01T14:41:02;6.60;;;4.20;;
78891;SDS011;68368;51.728;5.248;2023-04-01T14:43:24;7.70;;;4.70;;
78891;SDS011;68368;51.728;5.248;2023-04-01T14:45:47;7.80;;;3.60;;